Time;durP1;ratioP1;P1;durP2;ratioP2;P2;SDS_P1;SDS_P2;PMS_P1;PMS_P2;Temp;Humidity;BMP_temperature;BMP_pressure;BME280_temperature;BME280_humidity;BME280_pressure;Samples;Min_cycle;Max_cycle;Signal;HPM_P1;HPM_P2
2022/03/01 00:01:50;;;;;;;24.98;10.48;;;;;;;0.24;73.57;102726.97;5059345;28;20020;-70
2022/03/01 00:04:15;;;;;;;18.40;10.00;;;;;;;0.20;73.75;102733.22;5069139;28;20040;-69
2022/03/01 00:06:41;;;;;;;22.15;9.82;;;;;;;0.15;74.30;102735.00;5069707;28;20097;-68
2022/03/01 00:09:06;;;;;;;18.50;9.10;;;;;;;0.09;74.54;102740.31;5066470;28;20089;-69
2022/03/01 00:11:32;;;;;;;19.35;9.82;;;;;;;0.07;74.05;102733.19;5051033;28;20036;-70
2022/03/01 00:13:58;;;;;;;22.92;10.55;;;;;;;0.05;74.27;102741.22;5066776;28;20052;-72
2022/03/01 00:16:24;;;;;;;19.30;9.10;;;;;;;0.02;74.27;102733.19;5067167;28;20116;-67
2022/03/01 00:18:50;;;;;;;17.65;9.38;;;;;;;0.11;74.22;102735.88;5065268;28;20543;-74
2022/03/01 00:21:16;;;;;;;21.20;10.23;;;;;;;0.11;73.94;102733.22;5067673;28;20143;-68
2022/03/01 00:23:41;;;;;;;18.42;8.90;;;;;;;0.08;74.13;102727.84;5068447;28;20373;-73
2022/03/01 00:26:06;;;;;;;22.38;10.98;;;;;;;0.05;74.41;102729.59;5066383;28;20021;-68
2022/03/01 00:28:32;;;;;;;27.48;11.32;;;;;;;-0.04;74.68;102722.50;5067187;28;20028;-69
2022/03/01 00:30:58;;;;;;;25.63;11.32;;;;;;;-0.09;74.79;102729.63;5068016;28;20058;-69
2022/03/01 00:33:23;;;;;;;19.42;10.38;;;;;;;-0.15;74.87;102730.47;5068003;28;20037;-74
2022/03/01 00:35:48;;;;;;;21.38;10.50;;;;;;;-0.20;75.27;102737.59;5057729;28;20040;-74
2022/03/01 00:38:14;;;;;;;20.23;10.30;;;;;;;-0.25;75.71;102742.03;5061822;28;20024;-73
2022/03/01 00:40:39;;;;;;;18.35;9.40;;;;;;;-0.31;75.81;102728.66;5069216;28;20418;-69
2022/03/01 00:43:05;;;;;;;20.13;9.77;;;;;;;-0.35;76.57;102733.09;5066142;28;20044;-74
2022/03/01 00:45:30;;;;;;;15.88;9.00;;;;;;;-0.35;75.69;102733.09;5067691;28;20039;-69
2022/03/01 00:47:56;;;;;;;17.50;9.20;;;;;;;-0.32;76.11;102733.13;5066432;28;20040;-68
2022/03/01 00:50:21;;;;;;;18.90;9.40;;;;;;;-0.39;76.13;102730.41;5058401;28;20104;-68
2022/03/01 00:52:46;;;;;;;15.30;8.98;;;;;;;-0.45;76.52;102730.41;5067068;28;20134;-74
2022/03/01 00:55:13;;;;;;;17.92;9.05;;;;;;;-0.54;76.94;102729.47;5067640;28;20102;-73
2022/03/01 00:57:38;;;;;;;19.38;9.82;;;;;;;-0.57;77.19;102725.88;5064816;28;20078;-75
2022/03/01 01:00:05;;;;;;;19.48;9.82;;;;;;;-0.49;76.20;102731.28;5068857;28;20052;-68
2022/03/01 01:02:31;;;;;;;19.27;9.90;;;;;;;-0.42;75.65;102731.31;5066242;28;20035;-68
2022/03/01 01:04:57;;;;;;;19.65;9.60;;;;;;;-0.31;75.24;102736.69;5068971;28;20032;-75
2022/03/01 01:07:22;;;;;;;23.67;10.20;;;;;;;-0.33;75.22;102736.69;5067538;28;20205;-74
2022/03/01 01:09:48;;;;;;;21.48;9.35;;;;;;;-0.30;75.17;102735.78;5066801;28;20407;-69
2022/03/01 01:12:13;;;;;;;21.38;9.57;;;;;;;-0.28;75.37;102734.91;5064216;28;20394;-70
2022/03/01 01:14:39;;;;;;;21.73;10.20;;;;;;;-0.27;74.79;102730.47;5066765;28;20705;-75
2022/03/01 01:17:04;;;;;;;22.33;9.75;;;;;;;-0.26;75.14;102729.56;5064854;28;20443;-75
2022/03/01 01:19:30;;;;;;;19.40;10.35;;;;;;;-0.26;74.91;102729.56;5049414;28;20081;-75
2022/03/01 01:24:39;;;;;;;23.52;10.00;;;;;;;-0.30;75.29;102728.66;5081846;28;20040;-75
2022/03/01 01:27:04;;;;;;;19.23;10.15;;;;;;;-0.33;75.46;102731.34;5061032;28;20032;-68
2022/03/01 01:29:30;;;;;;;18.98;9.55;;;;;;;-0.32;75.09;102730.44;5059544;28;20029;-74
2022/03/01 01:31:55;;;;;;;16.98;9.35;;;;;;;-0.29;75.64;102735.78;5060009;28;20119;-68
2022/03/01 01:34:20;;;;;;;21.15;10.20;;;;;;;-0.25;75.34;102734.00;5048404;28;20049;-68
2022/03/01 01:36:46;;;;;;;23.42;10.45;;;;;;;-0.21;75.19;102724.22;5061781;28;20037;-69
2022/03/01 01:39:11;;;;;;;20.63;9.57;;;;;;;-0.23;75.49;102723.31;5054271;28;20405;-75
2022/03/01 01:41:37;;;;;;;20.73;9.63;;;;;;;-0.26;75.16;102721.53;5052302;28;20143;-69
2022/03/01 01:44:07;;;;;;;19.48;9.73;;;;;;;-0.29;75.54;102733.09;5061814;28;20100;-69
2022/03/01 01:46:32;;;;;;;18.52;8.98;;;;;;;-0.29;75.37;102727.75;5054901;28;20039;-72
2022/03/01 01:48:58;;;;;;;22.75;10.68;;;;;;;-0.30;75.67;102723.31;5065380;28;20041;-76
2022/03/01 01:51:27;;;;;;;21.00;10.50;;;;;;;-0.30;75.67;102727.75;5067617;28;20193;-74
2022/03/01 01:53:53;;;;;;;19.67;10.43;;;;;;;-0.34;75.76;102723.28;5053383;28;20111;-75
2022/03/01 01:56:19;;;;;;;23.65;10.23;;;;;;;-0.36;75.88;102725.09;5048896;28;20508;-74
2022/03/01 01:58:44;;;;;;;21.45;10.70;;;;;;;-0.38;76.33;102725.06;5066020;28;20101;-69
2022/03/01 02:01:10;;;;;;;18.25;9.55;;;;;;;-0.41;76.52;102721.50;5049840;28;20024;-68
2022/03/01 02:03:35;;;;;;;19.80;9.77;;;;;;;-0.41;76.47;102722.41;5052500;28;20037;-70
2022/03/01 02:06:01;;;;;;;19.73;9.40;;;;;;;-0.38;76.43;102726.84;5065267;28;20037;-77
2022/03/01 02:08:31;;;;;;;19.08;9.77;;;;;;;-0.40;76.29;102720.63;5064829;28;20036;-68
2022/03/01 02:10:57;;;;;;;18.83;9.10;;;;;;;-0.40;76.66;102715.25;5051725;28;20028;-70
2022/03/01 02:13:23;;;;;;;20.60;9.80;;;;;;;-0.43;76.92;102713.47;5061173;28;20040;-73
2022/03/01 02:15:49;;;;;;;21.25;10.07;;;;;;;-0.47;77.24;102722.34;5064731;28;20035;-72
2022/03/01 02:18:15;;;;;;;21.85;10.75;;;;;;;-0.49;77.14;102720.59;5048444;28;20036;-71
2022/03/01 02:20:41;;;;;;;22.42;9.52;;;;;;;-0.50;77.00;102714.34;5065042;28;20245;-74
2022/03/01 02:23:06;;;;;;;18.13;9.88;;;;;;;-0.53;76.98;102714.31;5062447;28;20032;-76
2022/03/01 02:25:31;;;;;;;24.65;11.30;;;;;;;-0.53;76.73;102722.34;5055359;28;20043;-69
2022/03/01 02:27:57;;;;;;;21.67;11.40;;;;;;;-0.54;76.74;102716.09;5062005;28;20383;-68
2022/03/01 02:30:22;;;;;;;19.40;10.63;;;;;;;-0.49;76.46;102720.59;5066871;28;20109;-74
2022/03/01 02:32:48;;;;;;;23.73;10.27;;;;;;;-0.47;76.99;102716.13;5064488;28;20048;-69
2022/03/01 02:35:13;;;;;;;25.15;12.23;;;;;;;-0.46;76.70;102723.28;5065102;28;20111;-69
2022/03/01 02:37:40;;;;;;;21.95;10.27;;;;;;;-0.48;77.17;102717.91;5065383;28;20020;-74
2022/03/01 02:40:06;;;;;;;18.27;9.05;;;;;;;-0.55;77.53;102710.75;5065397;28;20051;-73
2022/03/01 02:42:31;;;;;;;17.20;9.23;;;;;;;-0.64;78.71;102716.06;5062868;28;20340;-76
2022/03/01 02:44:57;;;;;;;21.92;10.20;;;;;;;-0.71;79.29;102715.13;5066414;28;20032;-74
2022/03/01 02:47:22;;;;;;;20.90;10.35;;;;;;;-0.75;79.71;102713.34;5063786;28;20036;-68
2022/03/01 02:49:48;;;;;;;20.10;9.75;;;;;;;-0.78;79.51;102708.00;5064630;28;20406;-74
2022/03/01 02:52:13;;;;;;;20.48;9.57;;;;;;;-0.78;79.19;102706.22;5065883;28;20361;-68
2022/03/01 02:54:39;;;;;;;24.30;10.23;;;;;;;-0.78;79.46;102700.00;5061589;28;20029;-74
2022/03/01 02:57:04;;;;;;;23.08;10.18;;;;;;;-0.76;79.52;102687.50;5061852;28;20036;-73
2022/03/01 02:59:30;;;;;;;20.02;10.30;;;;;;;-0.71;79.93;102698.22;5064892;28;20040;-68
2022/03/01 03:01:56;;;;;;;20.35;9.95;;;;;;;-0.72;80.32;102696.44;5052077;28;20029;-68
2022/03/01 03:04:22;;;;;;;19.70;9.95;;;;;;;-0.70;79.52;102698.25;5065196;28;20384;-68
2022/03/01 03:06:48;;;;;;;22.25;10.80;;;;;;;-0.66;79.33;102699.13;5066366;28;20078;-77
2022/03/01 03:09:13;;;;;;;15.40;9.00;;;;;;;-0.61;79.04;102698.25;5066435;28;20483;-68
2022/03/01 03:11:39;;;;;;;18.00;9.52;;;;;;;-0.57;78.27;102694.69;5045998;28;20048;-68
2022/03/01 03:14:04;;;;;;;19.65;10.20;;;;;;;-0.55;79.00;102697.41;5065265;28;20079;-74
2022/03/01 03:16:30;;;;;;;21.67;10.68;;;;;;;-0.52;78.91;102692.94;5065183;28;20098;-73
2022/03/01 03:18:56;;;;;;;20.67;9.75;;;;;;;-0.53;79.30;102687.59;5045217;28;20365;-74
2022/03/01 03:21:21;;;;;;;19.83;9.45;;;;;;;-0.55;80.35;102692.06;5064959;28;20036;-74
2022/03/01 03:23:46;;;;;;;19.15;10.05;;;;;;;-0.61;79.97;102692.91;5065958;28;20417;-68
2022/03/01 03:26:12;;;;;;;21.30;10.32;;;;;;;-0.58;78.80;102700.06;5066143;28;20028;-75
2022/03/01 03:28:37;;;;;;;24.67;10.88;;;;;;;-0.54;78.50;102689.38;5060504;28;20044;-69
2022/03/01 03:31:03;;;;;;;42.33;10.18;;;;;;;-0.46;78.78;102680.50;5066530;28;20109;-74
2022/03/01 03:33:28;;;;;;;26.13;11.02;;;;;;;-0.45;78.52;102685.84;5068458;28;20032;-72
2022/03/01 03:35:54;;;;;;;18.38;9.70;;;;;;;-0.44;78.85;102684.94;5069999;28;20032;-70
2022/03/01 03:38:20;;;;;;;20.67;10.05;;;;;;;-0.43;78.39;102681.38;5068322;28;20036;-68
2022/03/01 03:40:45;;;;;;;23.30;10.35;;;;;;;-0.46;78.69;102689.41;5069623;28;20403;-68
2022/03/01 03:43:11;;;;;;;22.23;10.15;;;;;;;-0.46;78.35;102693.88;5065770;28;20032;-69
2022/03/01 03:45:37;;;;;;;19.98;9.65;;;;;;;-0.44;77.78;102684.94;5052052;28;20480;-68
2022/03/01 03:48:03;;;;;;;23.00;10.00;;;;;;;-0.43;78.15;102684.06;5069273;28;20021;-69
2022/03/01 03:50:28;;;;;;;19.73;10.65;;;;;;;-0.42;78.80;102682.28;5068697;28;20131;-71
2022/03/01 03:52:54;;;;;;;17.40;9.52;;;;;;;-0.41;78.63;102686.75;5069589;28;20028;-75
2022/03/01 03:55:19;;;;;;;22.73;10.48;;;;;;;-0.38;78.75;102689.41;5069575;28;20086;-69
2022/03/01 03:57:45;;;;;;;20.55;10.32;;;;;;;-0.38;78.44;102690.28;5065476;28;20090;-73
2022/03/01 04:00:15;;;;;;;19.77;9.55;;;;;;;-0.39;79.27;102691.19;5067577;28;20042;-69
2022/03/01 04:02:42;;;;;;;19.35;9.65;;;;;;;-0.37;78.90;102688.56;5054530;28;20145;-68
2022/03/01 04:05:08;;;;;;;22.30;10.13;;;;;;;-0.38;77.89;102697.44;5069743;28;20081;-74
2022/03/01 04:07:34;;;;;;;19.45;9.30;;;;;;;-0.35;78.29;102698.34;5068781;28;20333;-74
2022/03/01 04:09:59;;;;;;;19.13;9.57;;;;;;;-0.33;77.93;102687.63;5068199;28;20032;-68
2022/03/01 04:12:24;;;;;;;20.73;10.10;;;;;;;-0.35;77.76;102682.28;5064983;28;20484;-68
2022/03/01 04:14:50;;;;;;;19.83;10.07;;;;;;;-0.29;77.59;102682.31;5069198;28;20044;-68
2022/03/01 04:17:15;;;;;;;23.83;10.98;;;;;;;-0.24;76.63;102687.66;5067475;28;20043;-68
2022/03/01 04:19:40;;;;;;;19.80;9.23;;;;;;;-0.21;77.29;102693.03;5068341;28;20448;-74
2022/03/01 04:22:06;;;;;;;19.85;9.60;;;;;;;-0.21;78.41;102692.13;5068008;28;20080;-68
2022/03/01 04:24:31;;;;;;;19.95;10.07;;;;;;;-0.23;76.86;102686.78;5068928;28;20028;-74
2022/03/01 04:26:57;;;;;;;21.42;9.75;;;;;;;-0.19;77.33;102695.69;5063756;28;20020;-73
2022/03/01 04:29:23;;;;;;;20.50;9.85;;;;;;;-0.16;77.76;102693.03;5067440;28;20094;-74
2022/03/01 04:31:49;;;;;;;21.52;10.55;;;;;;;-0.14;76.20;102704.59;5066184;28;20501;-72
2022/03/01 04:34:14;;;;;;;21.42;10.05;;;;;;;-0.13;76.19;102699.28;5067338;28;20064;-74
2022/03/01 04:36:39;;;;;;;25.85;11.02;;;;;;;-0.09;76.99;102698.41;5068425;28;20067;-70
2022/03/01 04:39:05;;;;;;;23.02;10.55;;;;;;;-0.05;78.67;102702.88;5066671;28;20048;-75
2022/03/01 04:41:30;;;;;;;24.58;10.70;;;;;;;-0.05;77.78;102704.63;5065273;28;20081;-69
2022/03/01 04:43:56;;;;;;;20.67;10.90;;;;;;;-0.06;78.38;102694.81;5066494;28;20040;-68
2022/03/01 04:46:21;;;;;;;21.25;9.68;;;;;;;-0.07;77.44;102690.38;5068044;28;20478;-68
2022/03/01 04:48:46;;;;;;;21.02;10.35;;;;;;;-0.06;78.42;102694.81;5060193;28;20472;-74
2022/03/01 04:51:12;;;;;;;23.05;10.43;;;;;;;-0.07;78.61;102683.22;5067570;28;20457;-74
2022/03/01 04:53:38;;;;;;;22.40;10.27;;;;;;;0.00;77.91;102700.19;5067282;28;20037;-74
2022/03/01 04:56:04;;;;;;;24.63;10.82;;;;;;;0.03;79.00;102696.63;5050028;28;20083;-73
2022/03/01 04:58:29;;;;;;;23.90;10.85;;;;;;;0.04;77.56;102690.38;5060200;28;20032;-69
2022/03/01 05:00:55;;;;;;;23.02;10.63;;;;;;;0.05;78.42;102690.41;5051807;28;20090;-68
2022/03/01 05:03:21;;;;;;;23.25;10.52;;;;;;;0.04;78.19;102685.91;5041605;28;20035;-69
2022/03/01 05:05:48;;;;;;;22.60;11.00;;;;;;;0.03;78.52;102688.59;5068245;28;20035;-72
2022/03/01 05:08:14;;;;;;;25.33;10.88;;;;;;;0.02;77.80;102690.38;5067634;28;20399;-74
2022/03/01 05:10:39;;;;;;;22.50;10.65;;;;;;;0.03;78.26;102689.47;5067947;28;20394;-69
2022/03/01 05:13:05;;;;;;;17.63;9.55;;;;;;;0.04;78.51;102685.91;5063644;28;20074;-70
2022/03/01 05:15:30;;;;;;;23.13;10.57;;;;;;;0.04;78.07;102685.91;5067234;28;20040;-68
2022/03/01 05:17:58;;;;;;;21.52;11.52;;;;;;;0.05;78.10;102686.81;5066380;28;20051;-76
2022/03/01 05:20:25;;;;;;;26.60;11.85;;;;;;;0.06;78.93;102686.81;5066543;28;20036;-69
2022/03/01 05:22:51;;;;;;;22.48;10.50;;;;;;;0.06;78.51;102689.50;5049521;28;20138;-69
2022/03/01 05:25:19;;;;;;;20.92;10.45;;;;;;;0.04;78.92;102685.03;5057545;28;20151;-69
2022/03/01 05:27:46;;;;;;;22.25;10.20;;;;;;;-0.01;80.60;102679.66;5058606;28;20028;-72
2022/03/01 05:30:13;;;;;;;23.75;10.68;;;;;;;-0.08;80.22;102672.53;5058637;28;20033;-73
2022/03/01 05:32:43;;;;;;;23.17;11.20;;;;;;;-0.12;79.86;102660.94;5056670;28;20056;-76
2022/03/01 05:35:13;;;;;;;19.13;11.00;;;;;;;-0.13;79.89;102664.50;5058873;28;20480;-74
2022/03/01 05:37:39;;;;;;;27.63;12.07;;;;;;;-0.11;79.96;102667.19;5058342;28;20072;-73
2022/03/01 05:40:07;;;;;;;24.50;10.65;;;;;;;-0.12;79.40;102658.28;5052210;28;20325;-75
2022/03/01 05:42:34;;;;;;;25.27;11.32;;;;;;;-0.09;78.47;102655.59;5052753;28;20040;-67
2022/03/01 05:45:00;;;;;;;22.83;10.27;;;;;;;-0.03;78.10;102660.94;5047710;28;20040;-74
2022/03/01 05:47:28;;;;;;;18.48;9.90;;;;;;;-0.01;78.83;102659.16;5046912;28;20024;-70
2022/03/01 05:49:54;;;;;;;22.92;10.15;;;;;;;-0.05;78.90;102652.03;5045379;28;20041;-77
2022/03/01 05:52:20;;;;;;;18.70;10.13;;;;;;;-0.05;79.28;102661.81;5057334;28;20036;-68
2022/03/01 05:54:46;;;;;;;21.58;11.63;;;;;;;-0.10;79.31;102664.50;5048571;28;20044;-73
2022/03/01 05:57:11;;;;;;;20.25;10.02;;;;;;;-0.12;79.05;102660.06;5053376;28;20525;-73
2022/03/01 05:59:37;;;;;;;26.75;11.40;;;;;;;-0.16;77.62;102667.19;5057104;28;20043;-73
2022/03/01 06:02:03;;;;;;;22.35;12.02;;;;;;;-0.15;77.31;102652.91;5049815;28;20040;-69
2022/03/01 06:04:28;;;;;;;23.70;10.85;;;;;;;-0.17;77.43;102653.81;5054694;28;20120;-68
2022/03/01 06:06:53;;;;;;;20.30;10.57;;;;;;;-0.19;77.41;102659.13;5052712;28;20120;-68
2022/03/01 06:09:19;;;;;;;21.83;10.48;;;;;;;-0.25;77.92;102656.47;5052406;28;20036;-68
2022/03/01 06:11:44;;;;;;;20.40;10.82;;;;;;;-0.25;77.71;102656.47;5062267;28;20063;-73
2022/03/01 06:14:10;;;;;;;22.13;11.30;;;;;;;-0.30;77.59;102658.25;5057603;28;20041;-73
2022/03/01 06:16:35;;;;;;;21.63;10.82;;;;;;;-0.33;77.82;102648.44;5048494;28;20036;-73
2022/03/01 06:19:00;;;;;;;20.40;9.98;;;;;;;-0.34;77.91;102652.00;5062561;28;20063;-67
2022/03/01 06:21:26;;;;;;;24.02;11.25;;;;;;;-0.35;77.50;102654.66;5045967;28;20036;-75
2022/03/01 06:23:52;;;;;;;23.10;11.32;;;;;;;-0.35;77.73;102654.66;5060299;28;20032;-68
2022/03/01 06:26:17;;;;;;;23.85;11.60;;;;;;;-0.34;77.31;102657.34;5049942;28;20040;-68
2022/03/01 06:28:43;;;;;;;22.10;10.80;;;;;;;-0.33;78.35;102647.53;5043792;28;20037;-78
2022/03/01 06:31:08;;;;;;;23.55;12.02;;;;;;;-0.33;77.83;102650.19;5054431;28;20072;-76
2022/03/01 06:33:33;;;;;;;19.75;10.25;;;;;;;-0.32;77.25;102654.69;5051853;28;20094;-69
2022/03/01 06:35:59;;;;;;;24.38;11.43;;;;;;;-0.27;77.56;102672.50;5051453;28;20156;-72
2022/03/01 06:38:25;;;;;;;22.98;11.43;;;;;;;-0.31;77.56;102665.38;5054190;28;20044;-78
2022/03/01 06:40:55;;;;;;;23.80;10.85;;;;;;;-0.24;77.73;102676.06;5059797;28;20085;-72
2022/03/01 06:43:21;;;;;;;20.70;9.82;;;;;;;-0.23;78.07;102675.16;5055069;28;20040;-77
2022/03/01 06:45:47;;;;;;;19.75;9.98;;;;;;;-0.22;77.80;102677.00;5059875;28;20047;-77
2022/03/01 06:48:12;;;;;;;22.77;10.63;;;;;;;-0.22;78.50;102675.19;5046598;28;20465;-68
2022/03/01 06:50:38;;;;;;;24.05;11.43;;;;;;;-0.17;79.00;102680.56;5046217;28;20025;-77
2022/03/01 06:53:03;;;;;;;20.42;10.20;;;;;;;-0.11;78.80;102685.91;5052494;28;20334;-68
2022/03/01 06:55:29;;;;;;;22.27;10.70;;;;;;;-0.09;79.12;102681.47;5053171;28;20040;-72
2022/03/01 06:57:55;;;;;;;22.55;10.93;;;;;;;0.01;79.29;102688.59;5059080;28;20061;-69
2022/03/01 07:00:20;;;;;;;26.45;12.00;;;;;;;0.09;78.73;102693.94;5046254;28;20516;-77
2022/03/01 07:02:46;;;;;;;25.27;13.05;;;;;;;0.15;78.23;102694.84;5040447;28;20045;-76
2022/03/01 07:05:13;;;;;;;25.55;11.77;;;;;;;0.25;77.82;102687.72;5053972;28;20546;-70
2022/03/01 07:07:39;;;;;;;22.10;12.15;;;;;;;0.34;77.84;102693.06;5037016;28;20048;-73
2022/03/01 07:10:06;;;;;;;26.00;13.02;;;;;;;0.44;77.53;102694.84;5050449;28;20119;-68
2022/03/01 07:12:32;;;;;;;30.17;12.35;;;;;;;0.53;77.08;102693.94;5036929;28;20046;-69
2022/03/01 07:14:57;;;;;;;27.65;13.65;;;;;;;0.62;76.22;102691.25;5054215;28;20033;-69
2022/03/01 07:17:23;;;;;;;25.55;12.45;;;;;;;0.74;75.65;102704.59;5047978;28;20186;-70
2022/03/01 07:19:51;;;;;;;24.63;12.25;;;;;;;0.86;75.33;102693.00;5060467;28;20025;-72
2022/03/01 07:22:18;;;;;;;26.25;12.75;;;;;;;0.98;75.69;102682.25;5046473;28;20089;-75
2022/03/01 07:24:43;;;;;;;26.50;12.68;;;;;;;1.09;74.58;102697.41;5050419;28;20029;-71
2022/03/01 07:27:09;;;;;;;26.15;12.77;;;;;;;1.21;74.31;102698.25;5051354;28;20028;-73
2022/03/01 07:29:34;;;;;;;26.20;12.27;;;;;;;1.40;73.23;102700.81;5047573;28;20093;-69
2022/03/01 07:32:00;;;;;;;24.85;13.07;;;;;;;1.67;72.88;102699.78;5055425;28;20036;-69
2022/03/01 07:34:26;;;;;;;24.92;12.43;;;;;;;1.91;72.15;102697.00;5047812;28;20491;-73
2022/03/01 07:36:52;;;;;;;21.92;12.15;;;;;;;2.18;71.17;102706.59;5060685;28;20037;-72
2022/03/01 07:39:17;;;;;;;23.17;12.13;;;;;;;2.40;70.22;102701.97;5044711;28;20029;-78
2022/03/01 07:41:43;;;;;;;25.40;11.82;;;;;;;2.43;70.37;102718.06;5058072;28;20045;-68
2022/03/01 07:44:10;;;;;;;25.73;11.82;;;;;;;2.47;70.12;102722.50;5060114;28;20392;-73
2022/03/01 07:46:36;;;;;;;24.05;12.50;;;;;;;2.47;70.16;102721.59;5052585;28;20049;-77
2022/03/01 07:49:03;;;;;;;26.92;12.23;;;;;;;2.43;69.98;102704.63;5059516;28;20038;-79
2022/03/01 07:51:28;;;;;;;27.48;13.27;;;;;;;2.43;70.67;102704.63;5058337;28;20036;-68
2022/03/01 07:53:53;;;;;;;25.85;12.50;;;;;;;2.33;70.72;102691.28;5064443;28;20039;-71
2022/03/01 07:56:21;;;;;;;24.13;11.98;;;;;;;2.31;70.91;102699.34;5062952;28;20037;-71
2022/03/01 07:58:47;;;;;;;21.48;11.63;;;;;;;2.26;71.72;102699.38;5053861;28;20029;-69
2022/03/01 08:01:12;;;;;;;27.77;12.48;;;;;;;2.19;70.71;102696.75;5058621;28;20032;-73
2022/03/01 08:03:38;;;;;;;27.23;13.60;;;;;;;2.15;70.84;102693.22;5061828;28;20342;-79
2022/03/01 08:06:03;;;;;;;27.13;13.00;;;;;;;2.14;71.00;102698.59;5060715;28;20468;-72
2022/03/01 08:08:29;;;;;;;25.10;13.65;;;;;;;2.13;70.76;102710.22;5057289;28;20041;-72
2022/03/01 08:10:54;;;;;;;24.25;11.77;;;;;;;2.14;70.44;102718.28;5030826;28;20465;-70
2022/03/01 08:13:19;;;;;;;23.80;12.00;;;;;;;2.16;70.65;102715.59;5057576;28;20115;-71
2022/03/01 08:15:45;;;;;;;22.48;11.48;;;;;;;2.20;70.78;102712.00;5054003;28;20025;-72
2022/03/01 08:18:10;;;;;;;30.13;12.27;;;;;;;2.25;71.42;102707.47;5064040;28;20025;-72
2022/03/01 08:20:36;;;;;;;23.92;12.30;;;;;;;2.32;71.59;102709.19;5062674;28;22175;-72
2022/03/01 08:23:02;;;;;;;27.67;12.15;;;;;;;2.39;71.89;102716.31;5061717;28;20044;-73
2022/03/01 08:25:28;;;;;;;20.17;11.43;;;;;;;2.47;70.35;102719.81;5062515;28;20048;-72
2022/03/01 08:27:53;;;;;;;22.33;11.98;;;;;;;2.57;71.34;102727.81;5056511;28;20029;-72
2022/03/01 08:30:19;;;;;;;24.88;12.23;;;;;;;2.68;70.05;102739.31;5059983;28;20062;-74
2022/03/01 08:32:46;;;;;;;26.20;11.50;;;;;;;2.76;70.29;102726.72;5059975;28;20051;-71
2022/03/01 08:35:11;;;;;;;22.48;11.50;;;;;;;2.88;68.97;102723.00;5059474;28;20035;-70
2022/03/01 08:37:37;;;;;;;25.30;11.77;;;;;;;2.96;68.34;102726.50;5056356;28;20032;-72
2022/03/01 08:40:04;;;;;;;27.13;12.40;;;;;;;3.00;69.49;102721.09;5063689;28;20669;-72
2022/03/01 08:42:30;;;;;;;26.77;12.45;;;;;;;3.09;70.13;102721.91;5058006;28;20479;-73
2022/03/01 08:44:56;;;;;;;29.15;12.63;;;;;;;3.19;70.00;102728.94;5067169;28;20116;-77
2022/03/01 08:47:23;;;;;;;26.15;13.23;;;;;;;3.29;69.78;102734.19;5056258;28;20083;-72
2022/03/01 08:49:49;;;;;;;25.17;12.43;;;;;;;3.41;69.78;102730.47;5056006;28;20036;-73
2022/03/01 08:52:14;;;;;;;27.67;12.95;;;;;;;3.53;69.37;102737.50;5063292;28;20032;-73
2022/03/01 08:54:40;;;;;;;23.60;11.93;;;;;;;3.62;68.26;102733.78;5060267;28;20067;-73
2022/03/01 08:57:06;;;;;;;29.70;12.60;;;;;;;3.79;67.37;102739.84;5058849;28;20021;-73
2022/03/01 08:59:31;;;;;;;24.50;12.80;;;;;;;3.99;70.09;102743.13;5060389;28;20060;-72
2022/03/01 09:01:58;;;;;;;21.08;11.80;;;;;;;4.10;67.22;102737.56;5054237;28;20029;-72
2022/03/01 09:04:23;;;;;;;27.00;13.23;;;;;;;4.34;67.58;102752.50;5066036;28;20391;-73
2022/03/01 09:06:49;;;;;;;23.35;11.82;;;;;;;4.51;69.02;102752.22;5053695;28;20111;-74
2022/03/01 09:09:14;;;;;;;21.52;12.73;;;;;;;4.71;67.40;102752.78;5065252;28;20480;-74
2022/03/01 09:11:40;;;;;;;25.92;12.68;;;;;;;5.01;66.57;102762.13;5063874;28;20060;-73
2022/03/01 09:14:05;;;;;;;20.25;11.38;;;;;;;5.28;64.98;102751.72;5049057;28;20086;-73
2022/03/01 09:16:31;;;;;;;34.45;12.15;;;;;;;5.60;65.17;102753.78;5066795;28;20046;-78
2022/03/01 09:18:56;;;;;;;25.55;12.77;;;;;;;5.92;67.04;102738.69;5045789;28;20132;-72
2022/03/01 09:21:21;;;;;;;19.27;11.40;;;;;;;6.16;64.31;102737.25;5056551;28;20442;-78
2022/03/01 09:23:47;;;;;;;23.15;13.10;;;;;;;6.27;62.02;102735.16;5067641;28;20119;-73
2022/03/01 09:26:13;;;;;;;20.50;11.60;;;;;;;6.29;60.77;102734.19;5066343;28;20123;-73
2022/03/01 09:28:39;;;;;;;18.35;11.25;;;;;;;6.36;59.37;102734.94;5060701;28;20041;-73
2022/03/01 09:31:04;;;;;;;20.60;11.45;;;;;;;6.37;59.37;102734.03;5056429;28;20032;-73
2022/03/01 09:33:29;;;;;;;20.98;11.88;;;;;;;6.47;61.18;102740.09;5048804;28;20040;-78
2022/03/01 09:35:55;;;;;;;22.55;12.57;;;;;;;6.55;58.88;102738.97;5067063;28;20044;-72
2022/03/01 09:38:21;;;;;;;22.42;11.07;;;;;;;6.60;58.11;102741.56;5066905;28;20029;-77
2022/03/01 09:40:49;;;;;;;23.73;11.20;;;;;;;6.70;59.59;102736.78;5064768;28;20043;-78
2022/03/01 09:43:16;;;;;;;20.70;10.88;;;;;;;6.77;57.60;102738.44;5063226;28;20029;-74
2022/03/01 09:45:42;;;;;;;18.83;10.95;;;;;;;6.83;60.12;102739.16;5065995;28;20392;-73
2022/03/01 09:48:07;;;;;;;23.40;12.18;;;;;;;6.98;59.27;102734.25;5054955;28;20028;-72
2022/03/01 09:50:33;;;;;;;20.80;10.65;;;;;;;7.10;56.96;102751.06;5066417;28;20294;-77
2022/03/01 09:53:00;;;;;;;20.38;10.82;;;;;;;7.11;54.75;102747.41;5065981;28;20048;-72
2022/03/01 09:55:26;;;;;;;18.27;9.95;;;;;;;7.17;53.91;102757.16;5065960;28;20043;-76
2022/03/01 09:57:52;;;;;;;22.90;12.18;;;;;;;7.22;54.04;102757.03;5061799;28;20475;-74
2022/03/01 10:00:17;;;;;;;20.55;11.18;;;;;;;7.27;53.89;102755.97;5057838;28;20051;-77
2022/03/01 10:02:44;;;;;;;22.40;10.98;;;;;;;7.30;54.59;102757.72;5067171;28;20031;-75
2022/03/01 10:05:12;;;;;;;19.58;10.85;;;;;;;7.36;56.08;102765.66;5067000;28;20044;-72
2022/03/01 10:07:42;;;;;;;19.90;11.18;;;;;;;7.43;56.98;102753.75;5048682;28;20052;-75
2022/03/01 10:10:13;;;;;;;25.40;11.43;;;;;;;7.47;55.39;102754.56;5067165;28;20074;-75
2022/03/01 10:12:39;;;;;;;22.85;10.27;;;;;;;7.53;55.17;102754.38;5045570;28;20141;-74
2022/03/01 10:15:07;;;;;;;24.35;11.63;;;;;;;7.57;56.32;102762.34;5064923;28;20025;-75
2022/03/01 10:17:41;;;;;;;22.17;12.15;;;;;;;7.63;55.55;102769.41;5066524;28;20034;-78
2022/03/01 10:20:12;;;;;;;20.70;11.98;;;;;;;7.67;53.89;102762.97;5061606;28;20033;-77
2022/03/01 10:22:45;;;;;;;20.73;11.07;;;;;;;7.74;54.21;102753.75;5057734;28;20029;-72
2022/03/01 10:25:12;;;;;;;21.10;12.63;;;;;;;7.77;52.95;102750.03;5053375;28;20044;-72
2022/03/01 10:27:38;;;;;;;20.13;11.73;;;;;;;7.84;54.33;102754.34;5063195;28;20430;-72
2022/03/01 10:30:05;;;;;;;18.73;11.15;;;;;;;7.95;53.91;102751.31;5065853;28;20143;-77
2022/03/01 10:32:31;;;;;;;23.30;11.50;;;;;;;8.01;54.58;102743.84;5059055;28;20391;-72
2022/03/01 10:35:01;;;;;;;20.85;11.63;;;;;;;8.10;53.44;102743.56;5060587;28;20032;-73
2022/03/01 10:37:32;;;;;;;26.85;12.40;;;;;;;8.10;52.99;102734.56;5048280;28;20043;-73
2022/03/01 10:40:23;;;;;;;22.23;11.18;;;;;;;8.23;54.70;102740.47;5065843;28;20115;-72
2022/03/01 10:43:17;;;;;;;23.15;11.10;;;;;;;8.41;55.24;102729.94;5063161;28;20036;-72
2022/03/01 10:45:46;;;;;;;25.35;11.55;;;;;;;8.57;54.50;102730.31;5057223;28;20392;-72
2022/03/01 10:48:27;;;;;;;18.85;11.27;;;;;;;8.75;53.32;102733.34;5065889;28;20436;-76
2022/03/01 10:51:08;;;;;;;18.70;10.55;;;;;;;8.98;52.21;102740.69;5065658;28;20032;-76
2022/03/01 10:53:42;;;;;;;20.65;11.52;;;;;;;9.12;51.24;102739.25;5065017;28;20043;-77
2022/03/01 10:56:14;;;;;;;23.05;11.68;;;;;;;9.25;48.37;102746.97;5053036;28;20040;-72
2022/03/01 10:58:42;;;;;;;21.88;11.80;;;;;;;9.47;51.17;102744.34;5060503;28;20114;-75
2022/03/01 11:01:09;;;;;;;20.33;12.48;;;;;;;9.62;48.98;102749.19;5051273;28;20020;-73
2022/03/01 11:03:35;;;;;;;18.23;11.43;;;;;;;9.67;49.12;102750.78;5065366;28;20124;-74
2022/03/01 11:06:02;;;;;;;19.92;12.18;;;;;;;9.79;49.86;102752.16;5065342;28;20056;-72
2022/03/01 11:08:38;;;;;;;20.17;11.18;;;;;;;9.78;48.06;102755.81;5066099;28;20492;-72
2022/03/01 11:11:05;;;;;;;20.38;11.85;;;;;;;9.85;50.38;102751.03;5065410;28;20867;-75
2022/03/01 11:13:34;;;;;;;23.48;10.45;;;;;;;9.81;50.03;102746.66;5061047;28;20044;-74